NO-0053 weather

Public forecast

Using degrees Celsius for public forecast. Weather courtesy of forecast.io.

Closest aviation weather report (METAR) to Molde Heliport, Hospital

Closest report is Molde Airport, 3.5 nm (6.5 km) E. Retrieved 2020/08/12 11:20 UTC (31 seconds ago):

ENML 121120Z 24005KT CAVOK 20/14 Q1022

Closest aviation forecast (TAF) to Molde Heliport, Hospital

Forecast is more than 12 hours old.

Closest forecast is Molde Airport, 3.5 nm (6.5 km) E. Retrieved 2011/03/08 08:45 UTC (9 years ago):

TAF TAF ESDF 0808 FCNO33 ENMI 080800 RRC TAF ENML 080800Z 0809/0818 21015KT 9999 FEW030 BKN050 TEMPO 0809/0818 21022G35KT BECMG 0815/0818 21022G35KT TEMPO 0815/0818 4000 RADZ BKN012